createdAt,value
2022-09-07T08:26:19.429Z,4.85
2022-09-07T08:28:51.969Z,4.28
2022-09-07T08:31:21.482Z,4.55
2022-09-07T08:33:51.395Z,4.32
2022-09-07T08:39:03.501Z,4.40
2022-09-07T08:41:55.151Z,4.22
2022-09-07T08:44:41.889Z,4.00
2022-09-07T08:47:20.396Z,4.10
2022-09-07T08:50:03.031Z,3.30
2022-09-07T08:52:50.899Z,4.00
2022-09-07T08:55:33.607Z,4.07
2022-09-07T08:58:47.661Z,4.38
2022-09-07T09:01:31.364Z,3.70
2022-09-07T09:04:15.965Z,3.85
2022-09-07T09:07:14.273Z,3.58
2022-09-07T09:10:20.286Z,3.47
2022-09-07T09:13:08.445Z,3.88
2022-09-07T09:16:05.913Z,3.50
2022-09-07T09:18:53.996Z,3.67
2022-09-07T09:21:21.777Z,3.83
2022-09-07T09:23:52.772Z,3.78
2022-09-07T09:26:40.694Z,3.78
2022-09-07T09:29:15.936Z,3.45
2022-09-07T09:31:43.000Z,3.75
2022-09-07T09:34:15.987Z,4.10
2022-09-07T09:36:47.340Z,4.18
2022-09-07T09:39:33.965Z,3.90
2022-09-07T09:42:23.278Z,3.67
2022-09-07T09:44:51.530Z,4.77
2022-09-07T09:47:34.790Z,3.60
2022-09-07T09:53:06.355Z,3.80
2022-09-07T09:55:37.034Z,3.95
2022-09-07T10:01:31.281Z,4.03
2022-09-07T10:04:13.341Z,3.80
2022-09-07T10:06:50.024Z,3.90
2022-09-07T10:09:20.930Z,3.80
2022-09-07T10:12:09.156Z,4.32
2022-09-07T10:14:45.475Z,4.30
2022-09-07T10:17:13.133Z,3.67
2022-09-07T10:19:42.214Z,3.83
2022-09-07T10:22:38.944Z,3.67
2022-09-07T10:25:44.197Z,4.25
2022-09-07T10:28:11.166Z,4.25
2022-09-07T10:31:22.919Z,3.92
2022-09-07T10:37:01.766Z,4.13
2022-09-07T10:39:34.365Z,4.78
2022-09-07T10:42:22.338Z,4.43
2022-09-07T10:45:26.388Z,5.25
2022-09-07T10:48:08.079Z,4.63
2022-09-07T10:51:09.841Z,4.45
2022-09-07T10:56:56.547Z,6.60
2022-09-07T11:00:07.435Z,5.82
2022-09-07T11:02:21.259Z,5.68
2022-09-07T11:05:07.929Z,4.97
2022-09-07T11:07:50.297Z,5.40
2022-09-07T11:10:28.244Z,5.15
2022-09-07T11:13:00.425Z,4.85
2022-09-07T11:15:31.052Z,6.03
2022-09-07T11:18:13.965Z,5.55
2022-09-07T11:20:51.188Z,4.80
2022-09-07T11:23:25.266Z,5.18
2022-09-07T11:26:09.152Z,4.70
2022-09-07T11:29:29.192Z,4.95
2022-09-07T11:31:45.053Z,5.60
2022-09-07T11:34:24.415Z,5.20
2022-09-07T11:37:10.627Z,5.25
2022-09-07T11:39:58.526Z,5.63
2022-09-07T11:42:43.551Z,5.57
2022-09-07T11:45:50.150Z,5.03
2022-09-07T11:48:30.495Z,4.60
2022-09-07T11:51:04.840Z,5.10
2022-09-07T11:53:41.762Z,4.63
2022-09-07T11:56:25.562Z,7.28
2022-09-07T11:59:26.729Z,5.20
2022-09-07T12:02:02.914Z,5.40
2022-09-07T12:04:33.136Z,5.00
2022-09-07T12:07:06.700Z,5.18
2022-09-07T12:09:52.830Z,5.85
2022-09-07T12:12:29.797Z,4.97
2022-09-07T12:15:30.378Z,5.43
2022-09-07T12:18:32.190Z,5.18
2022-09-07T12:21:01.978Z,6.47
2022-09-07T12:23:34.459Z,5.38
2022-09-07T12:26:32.767Z,5.82
2022-09-07T12:29:00.038Z,5.55
2022-09-07T12:32:52.770Z,8.05
2022-09-07T12:34:31.989Z,6.18
2022-09-07T12:37:20.678Z,6.65
2022-09-07T12:39:50.223Z,5.80
2022-09-07T12:42:36.676Z,5.20
2022-09-07T12:45:39.175Z,6.45
2022-09-07T12:48:15.900Z,5.45
2022-09-07T12:50:58.163Z,5.85
2022-09-07T12:53:46.913Z,5.50
2022-09-07T12:56:38.774Z,5.95
2022-09-07T12:59:31.136Z,5.78
2022-09-07T13:02:15.907Z,6.20
2022-09-07T13:04:52.880Z,6.57
2022-09-07T13:07:26.254Z,5.93
2022-09-07T13:09:59.701Z,6.28
2022-09-07T13:15:48.912Z,6.03
2022-09-07T13:18:28.086Z,6.35
2022-09-07T13:21:07.882Z,5.68
2022-09-07T13:23:40.150Z,5.40
2022-09-07T13:29:14.495Z,5.45
2022-09-07T13:32:03.628Z,6.32
2022-09-07T13:34:33.755Z,5.43
2022-09-07T13:37:06.026Z,5.47
2022-09-07T13:39:41.616Z,5.47
2022-09-07T13:42:19.074Z,5.40
2022-09-07T13:45:38.295Z,7.50
2022-09-07T13:48:11.775Z,5.40
2022-09-07T13:50:47.541Z,5.40
2022-09-07T13:53:48.419Z,5.90
2022-09-07T13:56:52.225Z,5.65
2022-09-07T13:59:26.875Z,6.10
2022-09-07T14:01:54.895Z,5.20
2022-09-07T14:04:35.165Z,5.38
2022-09-07T14:07:16.998Z,4.80
2022-09-07T14:09:44.418Z,5.55
2022-09-07T14:12:19.237Z,5.38
2022-09-07T14:15:09.065Z,5.25
2022-09-07T14:17:36.527Z,5.25
2022-09-07T14:20:04.156Z,5.38
2022-09-07T14:22:35.271Z,5.40
2022-09-07T14:25:05.880Z,5.75
2022-09-07T14:27:44.371Z,5.65
2022-09-07T14:30:33.907Z,5.30
2022-09-07T14:33:11.056Z,5.22
2022-09-07T14:35:39.382Z,5.32
2022-09-07T14:41:14.614Z,5.25
2022-09-07T14:43:55.456Z,5.53
2022-09-07T14:46:31.791Z,5.20
2022-09-07T14:49:18.192Z,5.15
2022-09-07T14:51:48.286Z,5.80
2022-09-07T14:54:21.460Z,5.18
2022-09-07T14:57:19.026Z,6.10
2022-09-07T14:59:47.953Z,5.70
2022-09-07T15:02:18.416Z,7.22
2022-09-07T15:05:08.841Z,6.43
2022-09-07T15:07:39.308Z,7.45
2022-09-07T15:10:35.699Z,5.93
2022-09-07T15:13:05.763Z,5.82
2022-09-07T15:15:37.132Z,5.63
2022-09-07T15:18:40.209Z,5.40
2022-09-07T15:21:08.999Z,5.68
2022-09-07T15:23:36.544Z,5.20
2022-09-07T15:26:04.067Z,6.70
2022-09-07T15:31:56.873Z,5.32
2022-09-07T15:34:20.417Z,5.78
2022-09-07T15:36:54.499Z,7.03
2022-09-07T15:39:26.644Z,6.75
2022-09-07T15:41:54.532Z,6.65
2022-09-07T15:44:26.152Z,11.00
2022-09-07T15:49:47.373Z,8.15
2022-09-07T15:52:17.930Z,7.53
2022-09-07T15:54:45.512Z,7.05
2022-09-07T16:00:00.249Z,6.47
2022-09-07T16:05:15.005Z,7.47
2022-09-07T16:10:32.321Z,7.43
2022-09-07T16:13:01.913Z,6.90
2022-09-07T16:15:31.081Z,7.88
2022-09-07T16:17:58.501Z,7.07
2022-09-07T16:20:32.071Z,7.80
2022-09-07T16:23:17.711Z,7.97
2022-09-07T16:26:01.468Z,7.40
2022-09-07T16:28:31.948Z,6.90
2022-09-07T16:30:59.274Z,7.90
2022-09-07T16:33:36.046Z,9.77
2022-09-07T16:36:13.406Z,8.93
2022-09-07T16:38:45.084Z,7.32
2022-09-07T16:41:20.467Z,7.20
2022-09-07T16:43:50.599Z,8.77
2022-09-07T16:46:21.115Z,7.40
2022-09-07T16:48:48.829Z,6.68
2022-09-07T16:51:18.782Z,8.07
2022-09-07T16:53:49.791Z,7.45
2022-09-07T16:56:23.260Z,8.20
2022-09-07T16:59:12.801Z,7.50
2022-09-07T17:01:42.462Z,7.80
2022-09-07T17:04:12.279Z,12.23
2022-09-07T17:06:40.369Z,8.98
2022-09-07T17:09:08.182Z,8.07
2022-09-07T17:11:37.025Z,8.77
2022-09-07T17:14:05.136Z,8.40
2022-09-07T17:16:40.564Z,8.23
2022-09-07T17:21:57.605Z,8.95
2022-09-07T17:24:25.231Z,12.50
2022-09-07T17:26:52.220Z,9.98
2022-09-07T17:29:19.349Z,9.95
2022-09-07T17:34:36.343Z,9.45
2022-09-07T17:37:04.104Z,10.40
2022-09-07T17:39:31.250Z,9.93
2022-09-07T17:42:01.937Z,9.70
2022-09-07T17:44:34.748Z,9.10
2022-09-07T17:47:04.945Z,9.85
2022-09-07T17:49:32.858Z,9.52
2022-09-07T17:52:02.410Z,10.20
2022-09-07T17:54:29.630Z,10.98
2022-09-07T17:56:57.296Z,9.77
2022-09-07T18:02:13.770Z,10.32
2022-09-07T18:04:40.930Z,10.68
2022-09-07T18:07:08.056Z,13.70
2022-09-07T18:09:38.006Z,12.00
2022-09-07T18:12:05.311Z,15.20
2022-09-07T18:14:32.355Z,11.75
2022-09-07T18:16:59.891Z,11.32
2022-09-07T18:19:26.914Z,11.48
2022-09-07T18:21:53.955Z,11.38
2022-09-07T18:24:25.490Z,12.15
2022-09-07T18:26:54.968Z,11.38
2022-09-07T18:29:29.408Z,9.85
2022-09-07T18:31:58.763Z,9.55
2022-09-07T18:34:26.603Z,9.10
2022-09-07T18:36:53.819Z,10.25
2022-09-07T18:39:22.280Z,11.00
2022-09-07T18:41:49.569Z,11.52
2022-09-07T18:47:07.066Z,9.40
2022-09-07T18:49:34.744Z,10.30
2022-09-07T18:54:50.524Z,14.95
2022-09-07T18:57:17.552Z,11.15
2022-09-07T18:59:44.751Z,11.77
2022-09-07T19:02:12.508Z,12.55
2022-09-07T19:07:30.151Z,10.13
2022-09-07T19:09:57.557Z,12.68
2022-09-07T19:12:24.713Z,10.85
2022-09-07T19:14:54.665Z,10.18
2022-09-07T19:17:24.126Z,11.93
2022-09-07T19:19:51.128Z,10.63
2022-09-07T19:22:20.947Z,10.88
2022-09-07T19:24:47.962Z,11.52
2022-09-07T19:27:14.983Z,9.90
2022-09-07T19:29:45.004Z,9.90
2022-09-07T19:32:11.977Z,16.25
2022-09-07T19:34:41.921Z,13.25
2022-09-07T19:37:11.073Z,10.30
2022-09-07T19:39:38.244Z,11.73
2022-09-07T19:42:07.570Z,12.88
2022-09-07T19:44:35.171Z,9.68
2022-09-07T19:47:02.196Z,11.48
2022-09-07T19:49:30.011Z,12.05
2022-09-07T19:51:57.652Z,11.52
2022-09-07T19:54:24.837Z,10.40
2022-09-07T19:56:54.275Z,10.65
2022-09-07T19:59:24.011Z,11.05
2022-09-07T20:01:50.973Z,11.13
2022-09-07T20:04:20.855Z,10.18
2022-09-07T20:06:51.602Z,9.77
2022-09-07T20:09:21.952Z,9.75
2022-09-07T20:11:51.887Z,10.23
2022-09-07T20:14:18.893Z,10.68
2022-09-07T20:16:45.974Z,9.13
2022-09-07T20:19:14.521Z,9.05
2022-09-07T20:21:42.676Z,9.57
2022-09-07T20:24:12.100Z,8.43
2022-09-07T20:26:41.968Z,9.52
2022-09-07T20:29:27.884Z,30.42
2022-09-07T20:32:00.292Z,9.20
2022-09-07T20:34:30.511Z,8.77
2022-09-07T20:36:57.850Z,8.13
2022-09-07T20:39:25.406Z,7.55
2022-09-07T20:41:52.428Z,7.28
2022-09-07T20:44:19.726Z,7.65
2022-09-07T20:46:47.006Z,7.78
2022-09-07T20:49:16.450Z,8.00
2022-09-07T20:51:46.084Z,8.18
2022-09-07T20:54:15.560Z,8.20
2022-09-07T20:56:42.553Z,9.65
2022-09-07T20:59:09.878Z,10.38
2022-09-07T21:01:37.041Z,10.27
2022-09-07T21:04:04.119Z,10.88
2022-09-07T21:06:32.435Z,11.98
2022-09-07T21:08:59.713Z,10.88
2022-09-07T21:11:35.285Z,10.05
2022-09-07T21:14:05.865Z,9.93
2022-09-07T21:16:33.854Z,9.75
2022-09-07T21:19:05.683Z,10.68
2022-09-07T21:21:43.432Z,11.13
2022-09-07T21:24:17.456Z,9.35
2022-09-07T21:26:45.527Z,9.27
2022-09-07T21:29:26.047Z,8.85
2022-09-07T21:31:54.082Z,9.35
2022-09-07T21:34:22.231Z,8.50
2022-09-07T21:36:50.125Z,8.23
2022-09-07T21:39:19.799Z,7.18
2022-09-07T21:41:51.374Z,8.07
2022-09-07T21:44:20.930Z,8.43
2022-09-07T21:46:48.041Z,7.95
2022-09-07T21:49:17.529Z,7.82
2022-09-07T21:51:49.556Z,7.63
2022-09-07T21:54:19.017Z,7.72
2022-09-07T21:56:46.923Z,8.50
2022-09-07T21:59:16.334Z,8.32
2022-09-07T22:01:43.533Z,8.07
2022-09-07T22:04:11.014Z,9.07
2022-09-07T22:06:38.164Z,8.93
2022-09-07T22:09:08.139Z,9.27
2022-09-07T22:11:35.908Z,8.98
2022-09-07T22:14:04.156Z,9.27
2022-09-07T22:16:32.686Z,8.10
2022-09-07T22:19:00.515Z,8.77
2022-09-07T22:21:30.387Z,8.18
2022-09-07T22:24:03.322Z,8.52
2022-09-07T22:26:36.292Z,8.13
2022-09-07T22:29:10.636Z,8.73
2022-09-07T22:31:38.994Z,9.05
2022-09-07T22:34:07.558Z,9.20
2022-09-07T22:36:38.045Z,9.35
2022-09-07T22:39:08.820Z,9.05
2022-09-07T22:41:37.675Z,8.82
2022-09-07T22:44:06.292Z,9.43
2022-09-07T22:46:36.597Z,9.10
2022-09-07T22:49:05.333Z,9.38
2022-09-07T22:51:33.261Z,9.63
2022-09-07T22:54:00.754Z,9.50
2022-09-07T22:56:30.029Z,10.02
2022-09-07T22:58:59.621Z,10.13
2022-09-07T23:01:29.074Z,9.77
2022-09-07T23:03:58.686Z,10.35
2022-09-07T23:06:34.120Z,10.02
2022-09-07T23:09:05.166Z,9.60
2022-09-07T23:11:32.398Z,8.63
2022-09-07T23:14:01.782Z,9.70
2022-09-07T23:16:34.291Z,9.77
2022-09-07T23:19:01.586Z,9.87
2022-09-07T23:21:31.122Z,9.88
2022-09-07T23:23:59.691Z,10.23
2022-09-07T23:26:32.153Z,9.65
2022-09-07T23:29:04.496Z,9.95
2022-09-07T23:31:33.631Z,9.35
2022-09-07T23:34:01.989Z,9.48
2022-09-07T23:36:30.416Z,9.55
2022-09-07T23:39:00.233Z,9.65
2022-09-07T23:41:28.112Z,9.85
2022-09-07T23:43:55.265Z,9.77
2022-09-07T23:46:24.973Z,10.35
2022-09-07T23:48:54.740Z,10.90
2022-09-07T23:51:24.562Z,11.15
2022-09-07T23:53:52.856Z,10.70
2022-09-07T23:56:23.172Z,10.82
2022-09-07T23:58:50.204Z,10.63
